地図

経路データ

SID SEASON NUMBER BASIN SUBBASIN NAME ISO_TIME NATURE LAT LON WMO_WIND WMO_PRES WMO_AGENCY TRACK_TYPE DIST2LAND LANDFALL IFLAG USA_AGENCY USA_ATCF_ID USA_LAT USA_LON USA_RECORD USA_STATUS USA_WIND USA_PRES USA_SSHS USA_R34_NE USA_R34_SE USA_R34_SW USA_R34_NW USA_R50_NE USA_R50_SE USA_R50_SW USA_R50_NW USA_R64_NE USA_R64_SE USA_R64_SW USA_R64_NW USA_POCI USA_ROCI USA_RMW USA_EYE TOKYO_LAT TOKYO_LON TOKYO_GRADE TOKYO_WIND TOKYO_PRES TOKYO_R50_DIR TOKYO_R50_LONG TOKYO_R50_SHORT TOKYO_R30_DIR TOKYO_R30_LONG TOKYO_R30_SHORT TOKYO_LAND CMA_LAT CMA_LON CMA_CAT CMA_WIND CMA_PRES HKO_LAT HKO_LON HKO_CAT HKO_WIND HKO_PRES NEWDELHI_LAT NEWDELHI_LON NEWDELHI_GRADE NEWDELHI_WIND NEWDELHI_PRES NEWDELHI_CI NEWDELHI_DP NEWDELHI_POCI REUNION_LAT REUNION_LON REUNION_TYPE REUNION_WIND REUNION_PRES REUNION_TNUM REUNION_CI REUNION_RMW REUNION_R34_NE REUNION_R34_SE REUNION_R34_SW REUNION_R34_NW REUNION_R50_NE REUNION_R50_SE REUNION_R50_SW REUNION_R50_NW REUNION_R64_NE REUNION_R64_SE REUNION_R64_SW REUNION_R64_NW BOM_LAT BOM_LON BOM_TYPE BOM_WIND BOM_PRES BOM_TNUM BOM_CI BOM_RMW BOM_R34_NE BOM_R34_SE BOM_R34_SW BOM_R34_NW BOM_R50_NE BOM_R50_SE BOM_R50_SW BOM_R50_NW BOM_R64_NE BOM_R64_SE BOM_R64_SW BOM_R64_NW BOM_ROCI BOM_POCI BOM_EYE BOM_POS_METHOD BOM_PRES_METHOD NADI_LAT NADI_LON NADI_CAT NADI_WIND NADI_PRES WELLINGTON_LAT WELLINGTON_LON WELLINGTON_WIND WELLINGTON_PRES DS824_LAT DS824_LON DS824_STAGE DS824_WIND DS824_PRES TD9636_LAT TD9636_LON TD9636_STAGE TD9636_WIND TD9636_PRES TD9635_LAT TD9635_LON TD9635_WIND TD9635_PRES TD9635_ROCI NEUMANN_LAT NEUMANN_LON NEUMANN_CLASS NEUMANN_WIND NEUMANN_PRES MLC_LAT MLC_LON MLC_CLASS MLC_WIND MLC_PRES USA_GUST BOM_GUST BOM_GUST_PER REUNION_GUST REUNION_GUST_PER USA_SEAHGT USA_SEARAD_NE USA_SEARAD_SE USA_SEARAD_SW USA_SEARAD_NW STORM_SPEED STORM_DIR
1905091S12417 1905 16 SI MM NOT_NAMED 1905-03-31 18:00:00 NR -12.4000 56.7000 main 732 674 __________O___ -1 -12.4000 56.7000 7 11 252
1905091S12417 1905 16 SI MM NOT_NAMED 1905-03-31 21:00:00 NR -12.5714 56.1523 main 674 618 __________P___ -1 -12.5714 56.1523 7 11 252
1905091S12417 1905 16 SI MM NOT_NAMED 1905-04-01 00:00:00 NR -12.7338 55.6233 main 608 561 __________P___ -1 -12.7338 55.6233 7 10 253
1905091S12417 1905 16 SI MM NOT_NAMED 1905-04-01 03:00:00 NR -12.8792 55.1327 main 550 505 __________P___ -1 -12.8792 55.1327 7 9 254
1905091S12417 1905 16 SI MM NOT_NAMED 1905-04-01 06:00:00 NR -13.0000 54.7000 main 505 471 __________O___ -1 -13.0000 54.7000 7 8 255
1905091S12417 1905 16 SI MM NOT_NAMED 1905-04-01 09:00:00 NR -13.0920 54.3381 main 461 427 __________P___ -1 -13.0920 54.3381 7 7 256
1905091S12417 1905 16 SI MM NOT_NAMED 1905-04-01 12:00:00 NR -13.1644 54.0321 main 427 405 __________P___ -1 -13.1644 54.0321 7 6 256
1905091S12417 1905 16 SI MM NOT_NAMED 1905-04-01 15:00:00 NR -13.2296 53.7601 main 405 371 __________P___ -1 -13.2296 53.7601 7 5 255
1905091S12417 1905 16 SI MM NOT_NAMED 1905-04-01 18:00:00 NR -13.3000 53.5000 main 371 338 __________O___ -1 -13.3000 53.5000 7 6 253
1905091S12417 1905 16 SI MM NOT_NAMED 1905-04-01 21:00:00 NR -13.3927 53.2178 main 338 315 __________P___ -1 -13.3927 53.2178 7 6 250
1905091S12417 1905 16 SI MM NOT_NAMED 1905-04-02 00:00:00 NR -13.4923 52.9424 main 304 281 __________P___ -1 -13.4923 52.9424 7 6 249
1905091S12417 1905 16 SI MM NOT_NAMED 1905-04-02 03:00:00 NR -13.5958 52.6709 main 281 248 __________P___ -1 -13.5958 52.6709 7 6 249
1905091S12417 1905 16 SI MM NOT_NAMED 1905-04-02 06:00:00 NR -13.7000 52.4000 main 248 216 __________O___ -1 -13.7000 52.4000 7 6 249
1905091S12417 1905 16 SI MM NOT_NAMED 1905-04-02 09:00:00 NR -13.7998 52.1330 main 216 194 __________P___ -1 -13.7998 52.1330 7 6 249
1905091S12417 1905 16 SI MM NOT_NAMED 1905-04-02 12:00:00 NR -13.8998 51.8649 main 194 161 __________P___ -1 -13.8998 51.8649 7 6 249
1905091S12417 1905 16 SI MM NOT_NAMED 1905-04-02 15:00:00 NR -13.9998 51.5893 main 161 129 __________P___ -1 -13.9998 51.5893 7 6 250
1905091S12417 1905 16 SI MM NOT_NAMED 1905-04-02 18:00:00 NR -14.1000 51.3000 main 129 97 __________O___ -1 -14.1000 51.3000 7 6 251
1905091S12417 1905 16 SI MM NOT_NAMED 1905-04-02 21:00:00 NR -14.1959 50.9933 main 97 63 __________P___ -1 -14.1959 50.9933 7 6 252
1905091S12417 1905 16 SI MM NOT_NAMED 1905-04-03 00:00:00 NR -14.2924 50.6723 main 63 31 __________P___ -1 -14.2924 50.6723 7 7 253
1905091S12417 1905 16 SI MM NOT_NAMED 1905-04-03 03:00:00 NR -14.3927 50.3402 main 21 0 __________P___ -1 -14.3927 50.3402 7 7 252
1905091S12417 1905 16 SI MM NOT_NAMED 1905-04-03 06:00:00 NR -14.5000 50.0000 main 0 0 __________O___ -1 -14.5000 50.0000 7 7 251
1905091S12417 1905 16 SI MM NOT_NAMED 1905-04-03 09:00:00 NR -14.6178 49.6491 main 0 0 __________P___ -1 -14.6178 49.6491 7 7 250
1905091S12417 1905 16 SI MM NOT_NAMED 1905-04-03 12:00:00 NR -14.7425 49.2925 main 0 0 __________P___ -1 -14.7425 49.2925 7 7 250
1905091S12417 1905 16 SI MM NOT_NAMED 1905-04-03 15:00:00 NR -14.8709 48.9397 main 0 0 __________P___ -1 -14.8709 48.9397 7 7 249
1905091S12417 1905 16 SI MM NOT_NAMED 1905-04-03 18:00:00 NR -15.0000 48.6000 main 0 0 __________O___ -1 -15.0000 48.6000 7 7 248
1905091S12417 1905 16 SI MM NOT_NAMED 1905-04-03 21:00:00 NR -15.1207 48.2895 main 0 0 __________P___ -1 -15.1207 48.2895 7 6 248
1905091S12417 1905 16 SI MM NOT_NAMED 1905-04-04 00:00:00 NR -15.2422 47.9922 main 0 0 __________P___ -1 -15.2422 47.9922 7 6 247
1905091S12417 1905 16 SI MM NOT_NAMED 1905-04-04 03:00:00 NR -15.3676 47.6988 main 0 0 __________P___ -1 -15.3676 47.6988 7 6 246
1905091S12417 1905 16 SI MM NOT_NAMED 1905-04-04 06:00:00 NR -15.5000 47.4000 main 0 0 __________O___ -1 -15.5000 47.4000 7 7 246
1905091S12417 1905 16 SI MM NOT_NAMED 1905-04-04 09:00:00 NR -15.6305 47.0820 main 0 0 __________P___ -1 -15.6305 47.0820 7 7 246
1905091S12417 1905 16 SI MM NOT_NAMED 1905-04-04 12:00:00 NR -15.7699 46.7572 main 0 0 __________P___ -1 -15.7699 46.7572 7 7 245
1905091S12417 1905 16 SI MM NOT_NAMED 1905-04-04 15:00:00 NR -15.9243 46.4288 main 10 0 __________P___ -1 -15.9243 46.4288 7 7 242
1905091S12417 1905 16 SI MM NOT_NAMED 1905-04-04 18:00:00 NR -16.1000 46.1000 main 0 0 __________O___ -1 -16.1000 46.1000 7 7 239
1905091S12417 1905 16 SI MM NOT_NAMED 1905-04-04 21:00:00 NR -16.2993 45.7709 main 0 0 __________P___ -1 -16.2993 45.7709 7 8 236
1905091S12417 1905 16 SI MM NOT_NAMED 1905-04-05 00:00:00 NR -16.5199 45.4424 main 0 0 __________P___ -1 -16.5199 45.4424 7 8 234
1905091S12417 1905 16 SI MM NOT_NAMED 1905-04-05 03:00:00 NR -16.7555 45.1177 main 0 0 __________P___ -1 -16.7555 45.1177 7 8 232
1905091S12417 1905 16 SI MM NOT_NAMED 1905-04-05 06:00:00 NR -17.0000 44.8000 main 0 0 __________O___ -1 -17.0000 44.8000 7 8 231
1905091S12417 1905 16 SI MM NOT_NAMED 1905-04-05 09:00:00 NR -17.2468 44.4806 main 0 0 __________P___ -1 -17.2468 44.4806 7 8 230
1905091S12417 1905 16 SI MM NOT_NAMED 1905-04-05 12:00:00 NR -17.4999 44.1700 main 0 0 __________P___ -1 -17.4999 44.1700 7 8 229
1905091S12417 1905 16 SI MM NOT_NAMED 1905-04-05 15:00:00 NR -17.7531 43.8743 main 10 10 __________P___ -1 -17.7531 43.8743 7 7 227
1905091S12417 1905 16 SI MM NOT_NAMED 1905-04-05 18:00:00 NR -18.0000 43.6000 main 42 42 __________O___ -1 -18.0000 43.6000 7 7 228
1905091S12417 1905 16 SI MM NOT_NAMED 1905-04-05 21:00:00 NR -18.2158 43.3369 main 73 73 __________P___ -1 -18.2158 43.3369 7 6 228
1905091S12417 1905 16 SI MM NOT_NAMED 1905-04-06 00:00:00 NR -18.4274 43.0971 main 94 94 __________P___ -1 -18.4274 43.0971 7 6 225
1905091S12417 1905 16 SI MM NOT_NAMED 1905-04-06 03:00:00 NR -18.6503 42.8838 main 120 120 __________P___ -1 -18.6503 42.8838 7 6 219
1905091S12417 1905 16 SI MM NOT_NAMED 1905-04-06 06:00:00 NR -18.9000 42.7000 main 147 147 __________O___ -1 -18.9000 42.7000 7 6 212
1905091S12417 1905 16 SI MM NOT_NAMED 1905-04-06 09:00:00 NR -19.1962 42.5180 main 178 178 __________P___ -1 -19.1962 42.5180 7 7 207
1905091S12417 1905 16 SI MM NOT_NAMED 1905-04-06 12:00:00 NR -19.5199 42.3678 main 194 194 __________P___ -1 -19.5199 42.3678 7 7 200
1905091S12417 1905 16 SI MM NOT_NAMED 1905-04-06 15:00:00 NR -19.8587 42.2587 main 194 189 __________P___ -1 -19.8587 42.2587 7 7 193
1905091S12417 1905 16 SI MM NOT_NAMED 1905-04-06 18:00:00 NR -20.2000 42.2000 main 189 168 __________O___ -1 -20.2000 42.2000 7 7 187
1905091S12417 1905 16 SI MM NOT_NAMED 1905-04-06 21:00:00 NR -20.5248 42.1633 main 168 150 __________P___ -1 -20.5248 42.1633 7 7 182
1905091S12417 1905 16 SI MM NOT_NAMED 1905-04-07 00:00:00 NR -20.8496 42.1804 main 150 126 __________P___ -1 -20.8496 42.1804 7 7 172
1905091S12417 1905 16 SI MM NOT_NAMED 1905-04-07 03:00:00 NR -21.1747 42.2573 main 126 108 __________P___ -1 -21.1747 42.2573 7 7 163
1905091S12417 1905 16 SI MM NOT_NAMED 1905-04-07 06:00:00 NR -21.5000 42.4000 main 108 75 __________O___ -1 -21.5000 42.4000 7 7 154
1905091S12417 1905 16 SI MM NOT_NAMED 1905-04-07 09:00:00 NR -21.8414 42.6097 main 75 30 __________P___ -1 -21.8414 42.6097 7 8 147
1905091S12417 1905 16 SI MM NOT_NAMED 1905-04-07 12:00:00 NR -22.1803 42.8817 main 30 10 __________P___ -1 -22.1803 42.8817 7 9 141
1905091S12417 1905 16 SI MM NOT_NAMED 1905-04-07 15:00:00 NR -22.5039 43.1880 main 10 0 __________P___ -1 -22.5039 43.1880 7 8 137
1905091S12417 1905 16 SI MM NOT_NAMED 1905-04-07 18:00:00 NR -22.8000 43.5000 main 0 0 __________O___ -1 -22.8000 43.5000 7 8 135
1905091S12417 1905 16 SI MM NOT_NAMED 1905-04-07 21:00:00 NR -23.0577 43.7795 main 0 0 __________P___ -1 -23.0577 43.7795 7 7 134
1905091S12417 1905 16 SI MM NOT_NAMED 1905-04-08 00:00:00 NR -23.2874 44.0580 main 0 0 __________P___ -1 -23.2874 44.0580 7 7 131
1905091S12417 1905 16 SI MM NOT_NAMED 1905-04-08 03:00:00 NR -23.4983 44.3326 main 0 0 __________P___ -1 -23.4983 44.3326 7 6 130
1905091S12417 1905 16 SI MM NOT_NAMED 1905-04-08 06:00:00 NR -23.7000 44.6000 main 0 0 __________O___ -1 -23.7000 44.6000 7 6 131
1905091S12417 1905 16 SI MM NOT_NAMED 1905-04-08 09:00:00 NR -23.9109 44.8454 main 0 0 __________P___ -1 -23.9109 44.8454 7 6 133
1905091S12417 1905 16 SI MM NOT_NAMED 1905-04-08 12:00:00 NR -24.1145 45.0856 main 0 0 __________P___ -1 -24.1145 45.0856 7 6 132
1905091S12417 1905 16 SI MM NOT_NAMED 1905-04-08 15:00:00 NR -24.3109 45.3329 main 0 0 __________P___ -1 -24.3109 45.3329 7 6 129
1905091S12417 1905 16 SI MM NOT_NAMED 1905-04-08 18:00:00 NR -24.5000 45.6000 main 0 0 __________O___ -1 -24.5000 45.6000 7 6 126
1905091S12417 1905 16 SI MM NOT_NAMED 1905-04-08 21:00:00 NR -24.6821 45.8960 main 0 0 __________P___ -1 -24.6821 45.8960 7 7 123
1905091S12417 1905 16 SI MM NOT_NAMED 1905-04-09 00:00:00 NR -24.8584 46.2166 main 0 0 __________P___ -1 -24.8584 46.2166 7 7 120
1905091S12417 1905 16 SI MM NOT_NAMED 1905-04-09 03:00:00 NR -25.0304 46.5539 main 0 0 __________P___ -1 -25.0304 46.5539 7 7 119
1905091S12417 1905 16 SI MM NOT_NAMED 1905-04-09 06:00:00 NR -25.2000 46.9000 main 10 __________O___ -1 -25.2000 46.9000 7 7 118

IBTrACS Databaseについて

本データベースは、米国NOAAが公開する1842年以降の世界の熱帯低気圧のベストトラックデータアーカイブInternational Best Track Archive for Climate Stewardship (IBTrACS)を、ウェブで閲覧しやすい形式に変換したものです。

最終更新日:2021-10-21